sensor_id;sensor_type;location;lat;lon;timestamp;pressure;altitude;pressure_sealevel;temperature;humidity
7586;BME280;12459;42.646;23.292;2023-05-23T00:01:48;93455.41;;;12.28;100.00
7586;BME280;12459;42.646;23.292;2023-05-23T00:16:50;93467.97;;;12.51;100.00
7586;BME280;12459;42.646;23.292;2023-05-23T00:31:52;93559.06;;;13.01;100.00
7586;BME280;12459;42.646;23.292;2023-05-23T00:46:55;93378.25;;;11.72;100.00
7586;BME280;12459;42.646;23.292;2023-05-23T01:01:57;93612.31;;;12.90;100.00
7586;BME280;12459;42.646;23.292;2023-05-23T01:17:09;93602.44;;;13.03;100.00
7586;BME280;12459;42.646;23.292;2023-05-23T01:32:13;93533.38;;;12.64;100.00
7586;BME280;12459;42.646;23.292;2023-05-23T01:47:16;93455.19;;;12.19;100.00
7586;BME280;12459;42.646;23.292;2023-05-23T02:02:18;93525.22;;;12.67;100.00
7586;BME280;12459;42.646;23.292;2023-05-23T02:17:20;93477.47;;;11.99;100.00
7586;BME280;12459;42.646;23.292;2023-05-23T02:32:22;93383.38;;;11.47;100.00
7586;BME280;12459;42.646;23.292;2023-05-23T02:47:24;93550.75;;;12.59;100.00
7586;BME280;12459;42.646;23.292;2023-05-23T03:02:26;93516.16;;;12.22;100.00
7586;BME280;12459;42.646;23.292;2023-05-23T03:17:28;93461.03;;;11.77;100.00
7586;BME280;12459;42.646;23.292;2023-05-23T03:32:29;93573.56;;;12.51;100.00
7586;BME280;12459;42.646;23.292;2023-05-23T03:47:31;93563.63;;;12.48;100.00
7586;BME280;12459;42.646;23.292;2023-05-23T04:02:33;93561.38;;;12.83;100.00
7586;BME280;12459;42.646;23.292;2023-05-23T04:17:35;93461.09;;;12.30;100.00
7586;BME280;12459;42.646;23.292;2023-05-23T04:32:39;93515.97;;;12.68;100.00
7586;BME280;12459;42.646;23.292;2023-05-23T04:47:41;93499.84;;;12.68;100.00
7586;BME280;12459;42.646;23.292;2023-05-23T05:02:45;93610.91;;;13.21;100.00
7586;BME280;12459;42.646;23.292;2023-05-23T05:17:47;93524.53;;;12.63;100.00
7586;BME280;12459;42.646;23.292;2023-05-23T05:32:50;93608.69;;;13.68;100.00
7586;BME280;12459;42.646;23.292;2023-05-23T05:47:52;93467.19;;;12.86;100.00
7586;BME280;12459;42.646;23.292;2023-05-23T06:02:53;93599.50;;;13.82;100.00
7586;BME280;12459;42.646;23.292;2023-05-23T06:17:58;93580.16;;;14.45;100.00
7586;BME280;12459;42.646;23.292;2023-05-23T06:32:59;93507.81;;;13.86;100.00
7586;BME280;12459;42.646;23.292;2023-05-23T06:48:01;93267.94;;;12.81;100.00
7586;BME280;12459;42.646;23.292;2023-05-23T07:03:05;93540.19;;;15.83;100.00
7586;BME280;12459;42.646;23.292;2023-05-23T07:18:07;93453.94;;;16.20;100.00
7586;BME280;12459;42.646;23.292;2023-05-23T07:33:09;93349.19;;;15.80;100.00
7586;BME280;12459;42.646;23.292;2023-05-23T07:48:11;93494.19;;;17.42;100.00
7586;BME280;12459;42.646;23.292;2023-05-23T08:03:14;93469.13;;;17.96;100.00
7586;BME280;12459;42.646;23.292;2023-05-23T08:18:15;93450.44;;;18.16;100.00
7586;BME280;12459;42.646;23.292;2023-05-23T08:33:18;93586.34;;;19.52;100.00
7586;BME280;12459;42.646;23.292;2023-05-23T08:48:20;93376.41;;;18.76;99.86
7586;BME280;12459;42.646;23.292;2023-05-23T09:03:27;93407.53;;;18.99;85.95
7586;BME280;12459;42.646;23.292;2023-05-23T09:18:39;93551.78;;;20.24;83.36
7586;BME280;12459;42.646;23.292;2023-05-23T09:33:45;93542.38;;;20.64;76.90
7586;BME280;12459;42.646;23.292;2023-05-23T09:48:50;93457.41;;;19.92;71.89
7586;BME280;12459;42.646;23.292;2023-05-23T10:03:54;93520.06;;;20.89;68.39
7586;BME280;12459;42.646;23.292;2023-05-23T10:19:02;93516.53;;;21.18;66.41
7586;BME280;12459;42.646;23.292;2023-05-23T10:49:17;93497.47;;;21.88;60.53
7586;BME280;12459;42.646;23.292;2023-05-23T11:04:27;93485.00;;;22.02;58.99
7586;BME280;12459;42.646;23.292;2023-05-23T11:19:29;93427.75;;;21.47;57.27
7586;BME280;12459;42.646;23.292;2023-05-23T11:34:31;93121.56;;;19.72;55.30
7586;BME280;12459;42.646;23.292;2023-05-23T11:49:38;93266.22;;;20.56;54.34
7586;BME280;12459;42.646;23.292;2023-05-23T12:04:40;93455.91;;;21.99;56.21
7586;BME280;12459;42.646;23.292;2023-05-23T12:19:44;93440.75;;;21.78;54.51
7586;BME280;12459;42.646;23.292;2023-05-23T12:34:48;93195.69;;;20.37;53.47
7586;BME280;12459;42.646;23.292;2023-05-23T12:49:50;93303.81;;;21.07;55.00
7586;BME280;12459;42.646;23.292;2023-05-23T13:04:51;93273.34;;;21.09;53.98
7586;BME280;12459;42.646;23.292;2023-05-23T13:19:53;93366.59;;;21.33;54.91
7586;BME280;12459;42.646;23.292;2023-05-23T13:34:55;93297.97;;;20.59;51.32
7586;BME280;12459;42.646;23.292;2023-05-23T13:49:57;93406.41;;;21.65;50.74
7586;BME280;12459;42.646;23.292;2023-05-23T14:04:58;93272.44;;;20.56;50.12
7586;BME280;12459;42.646;23.292;2023-05-23T14:20:01;93246.91;;;20.54;49.64
7586;BME280;12459;42.646;23.292;2023-05-23T14:35:04;93340.75;;;21.08;51.00
7586;BME280;12459;42.646;23.292;2023-05-23T14:50:07;93016.75;;;18.87;50.89
7586;BME280;12459;42.646;23.292;2023-05-23T15:05:09;93221.59;;;20.33;56.77
7586;BME280;12459;42.646;23.292;2023-05-23T15:20:11;93233.78;;;20.37;52.60
7586;BME280;12459;42.646;23.292;2023-05-23T15:35:13;93355.66;;;21.13;53.96
7586;BME280;12459;42.646;23.292;2023-05-23T15:50:16;93245.06;;;20.30;55.80
7586;BME280;12459;42.646;23.292;2023-05-23T16:05:19;93244.66;;;20.37;54.81
7586;BME280;12459;42.646;23.292;2023-05-23T16:20:21;93262.34;;;20.42;59.36
7586;BME280;12459;42.646;23.292;2023-05-23T16:35:23;93196.72;;;20.05;62.64
7586;BME280;12459;42.646;23.292;2023-05-23T16:50:25;93281.88;;;20.40;62.90
7586;BME280;12459;42.646;23.292;2023-05-23T17:05:26;93385.47;;;20.37;65.97
7586;BME280;12459;42.646;23.292;2023-05-23T17:20:28;93320.00;;;19.82;68.41
7586;BME280;12459;42.646;23.292;2023-05-23T17:35:30;93379.25;;;19.77;73.37
7586;BME280;12459;42.646;23.292;2023-05-23T17:50:32;93346.00;;;18.96;77.15
7586;BME280;12459;42.646;23.292;2023-05-23T18:05:34;93353.38;;;18.96;76.91
7586;BME280;12459;42.646;23.292;2023-05-23T18:20:36;93251.53;;;17.68;75.73
7586;BME280;12459;42.646;23.292;2023-05-23T18:35:37;93307.22;;;17.88;73.96
7586;BME280;12459;42.646;23.292;2023-05-23T18:50:39;93484.28;;;18.58;70.99
7586;BME280;12459;42.646;23.292;2023-05-23T19:05:42;93299.44;;;16.80;67.51
7586;BME280;12459;42.646;23.292;2023-05-23T19:20:44;93412.75;;;17.54;67.04
7586;BME280;12459;42.646;23.292;2023-05-23T19:35:48;93585.59;;;18.00;68.60
7586;BME280;12459;42.646;23.292;2023-05-23T19:50:49;93402.63;;;17.00;67.42
7586;BME280;12459;42.646;23.292;2023-05-23T20:05:51;93545.03;;;17.78;68.90
7586;BME280;12459;42.646;23.292;2023-05-23T20:20:53;93544.69;;;17.67;70.86
7586;BME280;12459;42.646;23.292;2023-05-23T20:35:55;93549.16;;;17.51;70.06
7586;BME280;12459;42.646;23.292;2023-05-23T20:50:57;93527.00;;;17.44;71.02
7586;BME280;12459;42.646;23.292;2023-05-23T21:06:00;93386.00;;;16.09;78.30
7586;BME280;12459;42.646;23.292;2023-05-23T21:21:02;93532.50;;;16.82;81.64
7586;BME280;12459;42.646;23.292;2023-05-23T21:36:04;93368.06;;;15.71;81.85
7586;BME280;12459;42.646;23.292;2023-05-23T21:51:05;93384.25;;;15.37;87.68
7586;BME280;12459;42.646;23.292;2023-05-23T22:06:07;93287.56;;;14.53;85.86
7586;BME280;12459;42.646;23.292;2023-05-23T22:21:09;93306.84;;;14.39;89.54
7586;BME280;12459;42.646;23.292;2023-05-23T22:36:11;93605.44;;;15.94;92.14
7586;BME280;12459;42.646;23.292;2023-05-23T22:51:12;93494.69;;;15.09;93.23
7586;BME280;12459;42.646;23.292;2023-05-23T23:06:15;93537.00;;;15.25;94.44
7586;BME280;12459;42.646;23.292;2023-05-23T23:21:17;93513.78;;;15.02;97.11
7586;BME280;12459;42.646;23.292;2023-05-23T23:36:19;93361.06;;;13.90;97.00
7586;BME280;12459;42.646;23.292;2023-05-23T23:51:21;93416.72;;;14.22;99.57
